createdAt,value
2018-05-09T12:13:20.091Z,465
2018-05-09T12:14:22.001Z,470
2018-05-09T12:15:24.069Z,475
2018-05-09T12:16:25.945Z,495
2018-05-09T12:17:27.779Z,540
2018-05-09T12:18:29.612Z,600
2018-05-09T12:19:31.519Z,700
2018-05-09T12:20:33.390Z,710
2018-05-09T12:21:35.270Z,640
2018-05-09T12:22:49.472Z,585
2018-05-09T12:23:51.322Z,585
2018-05-09T12:24:53.206Z,565
2018-05-09T12:25:55.087Z,555
2018-05-09T12:26:56.927Z,565
2018-05-09T12:27:58.751Z,585
2018-05-09T12:29:00.651Z,580
2018-05-09T12:30:02.603Z,585
2018-05-09T12:31:04.507Z,600
2018-05-09T12:32:18.751Z,630
2018-05-09T12:33:20.558Z,640
2018-05-09T12:34:22.436Z,610
2018-05-09T12:35:24.319Z,590
2018-05-09T12:36:26.190Z,575
2018-05-09T12:37:28.047Z,595
2018-05-09T12:38:29.931Z,625
2018-05-09T12:39:31.844Z,615
2018-05-09T12:40:33.728Z,610
2018-05-09T12:41:48.019Z,605
2018-05-09T12:42:49.959Z,595
2018-05-09T12:43:51.879Z,600
2018-05-09T12:44:53.800Z,545
2018-05-09T12:45:55.660Z,490
2018-05-09T12:46:57.498Z,435
2018-05-09T12:47:59.397Z,390
2018-05-09T12:49:01.274Z,355
2018-05-09T12:50:03.117Z,335
2018-05-09T12:51:17.296Z,305
2018-05-09T12:52:19.205Z,295
2018-05-09T12:53:21.111Z,310
2018-05-09T12:54:23.012Z,325
2018-05-09T12:55:24.852Z,325
2018-05-09T12:56:26.692Z,320
2018-05-09T12:57:28.576Z,320
2018-05-09T12:58:30.532Z,325
2018-05-09T12:59:32.381Z,335
2018-05-09T13:00:46.605Z,355
2018-05-09T13:01:48.492Z,360
2018-05-09T13:02:50.392Z,360
2018-05-09T13:03:52.291Z,370
2018-05-09T13:04:54.108Z,375
2018-05-09T13:05:55.923Z,390
2018-05-09T13:06:57.801Z,405
2018-05-09T13:07:59.685Z,435
2018-05-09T13:09:01.562Z,450
2018-05-09T13:10:15.719Z,465
2018-05-09T13:11:17.624Z,475
2018-05-09T13:12:19.527Z,500
2018-05-09T13:13:21.497Z,520
2018-05-09T13:14:23.268Z,525
2018-05-09T13:15:25.089Z,535
2018-05-09T13:16:26.968Z,555
2018-05-09T13:17:28.868Z,590
2018-05-09T13:18:30.740Z,610
2018-05-09T13:19:44.923Z,610
2018-05-09T13:20:46.777Z,610
2018-05-09T13:21:48.662Z,605
2018-05-09T13:22:50.562Z,595
2018-05-09T13:23:52.404Z,590
2018-05-09T13:24:54.224Z,585
2018-05-09T13:25:56.111Z,570
2018-05-09T13:26:57.981Z,560
2018-05-09T13:27:59.883Z,565
2018-05-09T13:29:14.050Z,550
2018-05-09T13:30:15.931Z,565
2018-05-09T13:31:17.811Z,565
2018-05-09T13:32:19.712Z,565
2018-05-09T13:33:21.562Z,540
2018-05-09T13:34:23.369Z,505
2018-05-09T13:35:25.244Z,475
2018-05-09T13:36:27.128Z,470
2018-05-09T13:37:29.030Z,465
2018-05-09T13:38:43.186Z,460
2018-05-09T13:39:45.094Z,450
2018-05-09T13:40:46.992Z,435
2018-05-09T13:41:48.877Z,435
2018-05-09T13:42:50.713Z,435
2018-05-09T13:43:52.537Z,435
2018-05-09T13:44:54.442Z,450
2018-05-09T13:45:56.423Z,455
2018-05-09T13:46:58.213Z,445
2018-05-09T13:48:12.369Z,435
2018-05-09T13:49:14.253Z,420
2018-05-09T13:50:16.162Z,405
2018-05-09T13:51:18.047Z,395
2018-05-09T13:52:19.879Z,385
2018-05-09T13:53:21.698Z,375
2018-05-09T13:54:23.596Z,385
2018-05-09T13:55:25.469Z,400
2018-05-09T13:56:27.350Z,405
2018-05-09T13:57:41.527Z,420
2018-05-09T13:58:43.432Z,440
2018-05-09T13:59:45.314Z,465
2018-05-09T14:00:47.217Z,480
2018-05-09T14:01:49.035Z,490
2018-05-09T14:02:50.854Z,485
2018-05-09T14:03:52.778Z,455
2018-05-09T14:04:54.672Z,435
2018-05-09T14:05:56.575Z,405
2018-05-09T14:07:10.764Z,380
2018-05-09T14:08:12.658Z,365
2018-05-09T14:09:14.546Z,355
2018-05-09T14:10:16.458Z,340
2018-05-09T14:11:18.292Z,330
2018-05-09T14:12:20.134Z,325
2018-05-09T14:13:22.034Z,325
2018-05-09T14:14:23.940Z,320
2018-05-09T14:15:25.898Z,320
2018-05-09T14:16:39.962Z,320
2018-05-09T14:17:41.836Z,325
2018-05-09T14:18:43.718Z,350
2018-05-09T14:19:45.619Z,365
2018-05-09T14:20:47.455Z,380
2018-05-09T14:21:49.270Z,400
2018-05-09T14:22:51.147Z,410
2018-05-09T14:23:53.044Z,430
2018-05-09T14:24:54.939Z,440
2018-05-09T14:26:09.092Z,450
2018-05-09T14:27:11.011Z,445
2018-05-09T14:28:12.912Z,445
2018-05-09T14:29:14.814Z,435
2018-05-09T14:30:16.732Z,425
2018-05-09T14:31:18.550Z,405
2018-05-09T14:32:20.524Z,390
2018-05-09T14:33:22.341Z,380
2018-05-09T14:34:24.243Z,375
2018-05-09T14:35:38.416Z,370
2018-05-09T14:36:40.321Z,375
2018-05-09T14:37:42.213Z,370
2018-05-09T14:38:44.092Z,370
2018-05-09T14:39:45.913Z,375
2018-05-09T14:40:47.768Z,385
2018-05-09T14:41:49.632Z,385
2018-05-09T14:42:51.539Z,385
2018-05-09T14:43:53.434Z,395
2018-05-09T14:45:07.596Z,410
2018-05-09T14:46:09.496Z,405
2018-05-09T14:47:11.398Z,405
2018-05-09T14:48:13.275Z,400
2018-05-09T14:49:15.090Z,395
2018-05-09T14:50:16.913Z,385
2018-05-09T14:51:18.809Z,390
2018-05-09T14:52:20.709Z,380
2018-05-09T14:53:22.606Z,370
2018-05-09T14:54:36.913Z,350
2018-05-09T14:55:38.637Z,335
2018-05-09T14:56:40.522Z,325
2018-05-09T14:57:42.409Z,325
2018-05-09T14:58:44.230Z,315
2018-05-09T14:59:46.096Z,305
2018-05-09T15:00:48.002Z,295
2018-05-09T15:01:49.897Z,290
2018-05-09T15:02:51.774Z,285
2018-05-09T15:04:05.926Z,270
2018-05-09T15:05:07.816Z,260
2018-05-09T15:06:09.712Z,250
2018-05-09T15:07:11.583Z,245
2018-05-09T15:08:13.404Z,245
2018-05-09T15:09:15.213Z,260
2018-05-09T15:10:17.074Z,270
2018-05-09T15:11:18.993Z,270
2018-05-09T15:12:20.891Z,270
2018-05-09T15:13:35.091Z,270
2018-05-09T15:14:36.964Z,270
2018-05-09T15:15:38.843Z,270
2018-05-09T15:16:40.725Z,270
2018-05-09T15:17:42.537Z,270
2018-05-09T15:18:44.353Z,270
2018-05-09T15:19:46.229Z,270
2018-05-09T15:20:48.132Z,270
2018-05-09T15:21:50.000Z,260
2018-05-09T15:23:04.635Z,250
2018-05-09T15:24:06.497Z,255
2018-05-09T15:25:08.398Z,260
2018-05-09T15:26:10.275Z,255
2018-05-09T15:27:12.120Z,255
2018-05-09T15:28:13.938Z,255
2018-05-09T15:29:15.804Z,260
2018-05-09T15:30:17.703Z,265
2018-05-09T15:31:19.603Z,275
2018-05-09T15:32:33.775Z,280
2018-05-09T15:33:35.652Z,285
2018-05-09T15:34:37.555Z,295
2018-05-09T15:35:39.457Z,305
2018-05-09T15:36:41.269Z,310
2018-05-09T15:37:43.181Z,325
2018-05-09T15:38:45.086Z,340
2018-05-09T15:39:46.859Z,350
2018-05-09T15:40:48.739Z,350
2018-05-09T15:42:02.909Z,350
2018-05-09T15:43:04.788Z,360
2018-05-09T15:44:06.694Z,365
2018-05-09T15:45:08.577Z,370
2018-05-09T15:46:10.416Z,385
2018-05-09T15:47:12.253Z,390
2018-05-09T15:48:14.137Z,390
2018-05-09T15:49:16.036Z,395
2018-05-09T15:50:18.022Z,400
2018-05-09T15:51:32.080Z,395
2018-05-09T15:52:33.964Z,375
2018-05-09T15:53:35.864Z,350
2018-05-09T15:54:37.761Z,335
2018-05-09T15:55:39.587Z,325
2018-05-09T15:56:41.506Z,320
2018-05-09T15:57:43.316Z,325
2018-05-09T15:58:45.189Z,325
2018-05-09T15:59:47.073Z,330
2018-05-09T16:01:01.246Z,320
2018-05-09T16:02:03.121Z,315
2018-05-09T16:03:05.032Z,295
2018-05-09T16:04:06.934Z,280
2018-05-09T16:05:08.776Z,280
2018-05-09T16:06:10.596Z,270
2018-05-09T16:07:12.471Z,260
2018-05-09T16:08:14.368Z,260
2018-05-09T16:09:16.270Z,275
2018-05-09T16:10:30.498Z,300
2018-05-09T16:11:32.342Z,315
2018-05-09T16:12:34.217Z,330
2018-05-09T16:13:36.117Z,325
2018-05-09T16:14:37.936Z,305
2018-05-09T16:15:39.775Z,290
2018-05-09T16:16:41.675Z,270
2018-05-09T16:17:43.574Z,260
2018-05-09T16:18:45.460Z,260
2018-05-09T16:19:59.608Z,255
2018-05-09T16:21:01.488Z,255
2018-05-09T16:22:03.389Z,255
2018-05-09T16:23:05.286Z,265
2018-05-09T16:24:07.134Z,275
2018-05-09T16:25:08.969Z,285
2018-05-09T16:26:10.875Z,275
2018-05-09T16:27:12.769Z,265
2018-05-09T16:28:14.646Z,265
2018-05-09T16:29:28.801Z,275
2018-05-09T16:30:30.710Z,275
2018-05-09T16:31:32.604Z,290
2018-05-09T16:32:34.484Z,280
2018-05-09T16:33:36.305Z,280
2018-05-09T16:34:38.147Z,275
2018-05-09T16:35:40.028Z,265
2018-05-09T16:36:41.916Z,245
2018-05-09T16:37:43.802Z,235
2018-05-09T16:38:57.974Z,220
2018-05-09T16:39:59.881Z,220
2018-05-09T16:41:01.779Z,220
2018-05-09T16:42:03.654Z,225
2018-05-09T16:43:05.476Z,225
2018-05-09T16:44:07.291Z,230
2018-05-09T16:45:09.176Z,235
2018-05-09T16:46:11.064Z,230
2018-05-09T16:47:12.949Z,230
2018-05-09T16:48:27.171Z,230
2018-05-09T16:49:29.045Z,230
2018-05-09T16:50:30.930Z,225
2018-05-09T16:51:32.828Z,230
2018-05-09T16:52:34.673Z,225
2018-05-09T16:53:36.512Z,225
2018-05-09T16:54:38.414Z,225
2018-05-09T16:55:40.318Z,220
2018-05-09T16:56:42.218Z,220
2018-05-09T16:57:56.428Z,220
2018-05-09T16:58:58.323Z,215
2018-05-09T17:00:00.199Z,210
2018-05-09T17:01:02.151Z,215
2018-05-09T17:02:03.914Z,215
2018-05-09T17:03:05.758Z,220
2018-05-09T17:04:07.632Z,225
2018-05-09T17:05:09.508Z,235
2018-05-09T17:06:11.404Z,235
2018-05-09T17:07:25.657Z,235
2018-05-09T17:08:27.434Z,235
2018-05-09T17:09:29.338Z,230
2018-05-09T17:10:31.241Z,225
2018-05-09T17:11:33.084Z,220
2018-05-09T17:12:34.925Z,220
2018-05-09T17:13:36.833Z,210
2018-05-09T17:14:38.740Z,200
2018-05-09T17:15:40.629Z,190
2018-05-09T17:16:54.786Z,175
2018-05-09T17:17:56.674Z,165
2018-05-09T17:18:58.573Z,145
2018-05-09T17:20:00.458Z,130
2018-05-09T17:21:02.302Z,115
2018-05-09T17:22:04.140Z,110
2018-05-09T17:23:06.044Z,100
2018-05-09T17:24:07.943Z,85
2018-05-09T17:25:09.840Z,75
2018-05-09T17:26:24.015Z,65
2018-05-09T17:27:25.918Z,60
2018-05-09T17:28:27.798Z,55
2018-05-09T17:29:29.702Z,50
2018-05-09T17:30:31.589Z,50
2018-05-09T17:31:33.337Z,50
2018-05-09T17:32:35.242Z,45
2018-05-09T17:33:37.133Z,45
2018-05-09T17:34:39.035Z,45
2018-05-09T17:35:53.214Z,40
2018-05-09T17:36:55.128Z,40
2018-05-09T17:37:57.014Z,40
2018-05-09T17:38:58.900Z,40
2018-05-09T17:40:00.720Z,40
2018-05-09T17:41:02.537Z,40
2018-05-09T17:42:04.409Z,40
2018-05-09T17:43:06.305Z,40
2018-05-09T17:44:08.203Z,40
2018-05-09T17:45:22.358Z,40
2018-05-09T17:46:24.231Z,40
2018-05-09T17:47:26.104Z,40
2018-05-09T17:48:27.990Z,40
2018-05-09T17:49:29.816Z,40
2018-05-09T17:50:31.624Z,40
2018-05-09T17:51:33.530Z,40
2018-05-09T17:52:35.421Z,45
2018-05-09T17:53:37.320Z,45
2018-05-09T17:54:51.494Z,45
2018-05-09T17:55:53.370Z,45
2018-05-09T17:56:55.259Z,45
2018-05-09T17:57:57.136Z,45
2018-05-09T17:58:59.016Z,45
2018-05-09T18:00:00.770Z,45
2018-05-09T18:01:02.657Z,45
2018-05-09T18:02:04.537Z,45
2018-05-09T18:03:06.402Z,45
2018-05-09T18:04:20.554Z,45
2018-05-09T18:05:22.447Z,45
2018-05-09T18:06:24.328Z,45
2018-05-09T18:07:26.231Z,40
2018-05-09T18:08:28.064Z,40
2018-05-09T18:09:29.902Z,40
2018-05-09T18:10:31.796Z,40
2018-05-09T18:11:33.671Z,35
2018-05-09T18:12:35.554Z,35
2018-05-09T18:13:49.691Z,35
2018-05-09T18:14:51.567Z,35
2018-05-09T18:15:53.451Z,30
2018-05-09T18:16:55.345Z,30
2018-05-09T18:17:57.154Z,25
2018-05-09T18:18:58.967Z,25
2018-05-09T18:20:00.842Z,25
2018-05-09T18:21:02.713Z,20
2018-05-09T18:22:04.622Z,20
2018-05-09T18:23:18.778Z,20
2018-05-09T18:24:20.655Z,20
2018-05-09T18:25:22.560Z,15
2018-05-09T18:26:24.451Z,15
2018-05-09T18:27:26.255Z,15
2018-05-09T18:28:28.073Z,15
2018-05-09T18:29:29.949Z,15
2018-05-09T18:30:31.825Z,10
2018-05-09T18:31:33.726Z,10
2018-05-09T18:32:47.895Z,10
2018-05-09T18:33:49.790Z,10
2018-05-09T18:34:51.687Z,10
2018-05-09T18:35:53.585Z,5
2018-05-09T18:36:55.425Z,5
2018-05-09T18:37:57.264Z,5
2018-05-09T18:38:59.165Z,5
2018-05-09T18:40:01.034Z,5
2018-05-09T18:41:02.985Z,5
2018-05-09T18:42:17.144Z,5
2018-05-09T18:43:19.040Z,5
2018-05-09T18:44:20.918Z,5
2018-05-09T18:45:22.813Z,5
2018-05-09T18:46:24.810Z,5
2018-05-09T18:47:26.459Z,0
2018-05-09T18:48:28.330Z,0
2018-05-09T18:49:30.199Z,0
2018-05-09T18:50:32.096Z,0
2018-05-09T18:51:46.234Z,0
2018-05-09T18:52:48.114Z,0
2018-05-09T18:53:50.012Z,0
2018-05-09T18:54:51.904Z,0
2018-05-09T18:55:53.717Z,0
2018-05-09T18:56:55.523Z,0
2018-05-09T18:57:57.400Z,0
2018-05-09T18:58:59.290Z,0
2018-05-09T19:00:01.156Z,0
2018-05-09T19:01:15.348Z,0
2018-05-09T19:02:17.218Z,0
2018-05-09T19:03:19.085Z,0
2018-05-09T19:04:20.960Z,0
2018-05-09T19:05:22.798Z,0
2018-05-09T19:06:24.649Z,0
2018-05-09T19:07:26.522Z,0
2018-05-09T19:08:28.414Z,0
2018-05-09T19:09:30.307Z,0
2018-05-09T19:10:44.480Z,0
2018-05-09T19:11:46.343Z,0
2018-05-09T19:12:48.212Z,0
2018-05-09T19:13:50.078Z,0
2018-05-09T19:14:51.896Z,0
2018-05-09T19:15:53.709Z,0
2018-05-09T19:16:55.573Z,0
2018-05-09T19:17:57.466Z,0
2018-05-09T19:18:59.337Z,0
2018-05-09T19:20:13.502Z,0
2018-05-09T19:21:15.375Z,0
2018-05-09T19:22:17.246Z,0
2018-05-09T19:23:19.146Z,0
2018-05-09T19:24:20.987Z,0
2018-05-09T19:25:22.812Z,0
2018-05-09T19:26:24.674Z,0
2018-05-09T19:27:26.549Z,0
2018-05-09T19:28:28.425Z,0
2018-05-09T19:29:42.590Z,0
2018-05-09T19:30:44.465Z,0
2018-05-09T19:31:46.361Z,0
2018-05-09T19:32:48.245Z,0
2018-05-09T19:33:50.049Z,0
2018-05-09T19:34:51.857Z,0
2018-05-09T19:35:53.725Z,0
2018-05-09T19:36:55.619Z,0
2018-05-09T19:37:57.520Z,0
2018-05-09T19:39:11.686Z,0
2018-05-09T19:40:13.581Z,0
2018-05-09T19:41:15.474Z,0
2018-05-09T19:42:17.369Z,0
2018-05-09T19:43:19.182Z,0
2018-05-09T19:44:20.982Z,0
2018-05-09T19:45:22.855Z,0
2018-05-09T19:46:24.742Z,0
2018-05-09T19:47:26.618Z,0
2018-05-09T19:48:40.770Z,0
2018-05-09T19:49:42.657Z,0
2018-05-09T19:50:44.552Z,0
2018-05-09T19:51:46.420Z,0
2018-05-09T19:52:48.225Z,0
2018-05-09T19:53:50.031Z,0
2018-05-09T19:54:51.900Z,0
2018-05-09T19:55:53.774Z,0
2018-05-09T19:56:55.664Z,0
2018-05-09T19:58:09.850Z,0
2018-05-09T19:59:11.766Z,0
2018-05-09T20:00:13.724Z,0
2018-05-09T20:01:15.718Z,0
2018-05-09T20:02:17.580Z,0
2018-05-09T20:03:19.424Z,0
2018-05-09T20:04:21.370Z,0
2018-05-09T20:05:23.308Z,0
2018-05-09T20:06:25.204Z,0
2018-05-09T20:07:39.404Z,0
2018-05-09T20:08:41.374Z,0
2018-05-09T20:09:43.170Z,0
2018-05-09T20:10:45.065Z,0
2018-05-09T20:11:46.897Z,0
2018-05-09T20:12:48.724Z,0
2018-05-09T20:13:50.665Z,0
2018-05-09T20:14:52.467Z,0
2018-05-09T20:15:54.355Z,0
2018-05-09T20:17:08.521Z,0
2018-05-09T20:18:10.392Z,0
2018-05-09T20:19:12.268Z,0
2018-05-09T20:20:14.155Z,0
2018-05-09T20:21:15.965Z,0
2018-05-09T20:22:17.777Z,0
2018-05-09T20:23:19.667Z,0
2018-05-09T20:24:21.537Z,0
2018-05-09T20:25:23.412Z,0
2018-05-09T20:26:37.578Z,0
2018-05-09T20:27:39.444Z,0
2018-05-09T20:28:41.321Z,0
2018-05-09T20:29:43.210Z,0
2018-05-09T20:30:45.075Z,0
2018-05-09T20:33:03.621Z,0
2018-05-09T20:34:05.486Z,0
2018-05-09T20:35:07.397Z,0
2018-05-09T20:36:21.560Z,0
2018-05-09T20:37:23.433Z,0
2018-05-09T20:38:25.308Z,0
2018-05-09T20:39:27.174Z,0
2018-05-09T20:40:28.979Z,0
2018-05-09T20:41:30.906Z,0
2018-05-09T20:42:32.651Z,0
2018-05-09T20:43:34.523Z,0
2018-05-09T20:44:36.414Z,0
2018-05-09T20:45:50.560Z,0
2018-05-09T20:46:52.455Z,0
2018-05-09T20:47:54.439Z,0
2018-05-09T20:48:56.215Z,0
2018-05-09T20:49:58.030Z,0
2018-05-09T20:50:59.862Z,0
2018-05-09T20:52:01.754Z,0
2018-05-09T20:53:03.623Z,0
2018-05-09T20:54:05.464Z,0
2018-05-09T20:55:19.594Z,0
2018-05-09T20:56:21.470Z,0
2018-05-09T20:57:23.364Z,0
2018-05-09T20:58:25.254Z,0
2018-05-09T20:59:27.065Z,0
2018-05-09T21:00:28.896Z,0
2018-05-09T21:01:30.784Z,0
2018-05-09T21:02:32.656Z,0
2018-05-09T21:03:34.555Z,0
2018-05-09T21:04:48.709Z,0
2018-05-09T21:05:50.588Z,0
2018-05-09T21:06:52.481Z,0
